Time;durP1;ratioP1;P1;durP2;ratioP2;P2;SDS_P1;SDS_P2;PMS_P1;PMS_P2;Temp;Humidity;BMP_temperature;BMP_pressure;BME280_temperature;BME280_humidity;BME280_pressure;Samples;Min_cycle;Max_cycle;Signal;HPM_P1;HPM_P2
2021/06/03 00:02:00;;;;;;;;;;;26.00;59.90;;;;;;5124432;28;19907;-39
2021/06/03 00:04:26;;;;;;;;;;;26.00;60.00;;;;;;5139427;27;19920;-39
2021/06/03 00:06:52;;;;;;;;;;;26.00;60.00;;;;;;5122981;28;19919;-39
2021/06/03 00:09:18;;;;;;;;;;;26.00;60.10;;;;;;5122241;28;19943;-39
2021/06/03 00:11:44;;;;;;;;;;;26.00;60.10;;;;;;5124260;28;19911;-39
2021/06/03 00:14:09;;;;;;;;;;;26.00;59.80;;;;;;5124079;28;19908;-39
2021/06/03 00:16:35;;;;;;;;;;;26.00;59.80;;;;;;5124262;28;19908;-39
2021/06/03 00:19:03;;;;;;;;;;;26.00;59.90;;;;;;5124374;28;20300;-39
2021/06/03 00:21:28;;;;;;;;;;;26.00;59.70;;;;;;5124090;28;20413;-39
2021/06/03 00:23:54;;;;;;;;;;;26.00;59.70;;;;;;5123499;28;19920;-39
2021/06/03 00:26:20;;;;;;;;;;;26.00;59.80;;;;;;5123616;28;19911;-39
2021/06/03 00:28:46;;;;;;;;;;;26.00;59.80;;;;;;5124193;28;19918;-39
2021/06/03 00:31:12;;;;;;;;;;;26.00;59.80;;;;;;5123792;28;19910;-39
2021/06/03 00:33:38;;;;;;;;;;;26.00;59.70;;;;;;5123988;28;19941;-39
2021/06/03 00:36:04;;;;;;;;;;;26.00;59.70;;;;;;5123893;28;19908;-39
2021/06/03 00:38:30;;;;;;;;;;;26.00;59.80;;;;;;5123322;28;19934;-37
2021/06/03 00:40:56;;;;;;;;;;;26.00;59.80;;;;;;5124040;28;19999;-39
2021/06/03 00:43:21;;;;;;;;;;;25.90;59.70;;;;;;5123759;28;19903;-39
2021/06/03 00:45:47;;;;;;;;;;;25.90;59.80;;;;;;5123515;28;19918;-39
2021/06/03 00:48:13;;;;;;;;;;;25.90;59.70;;;;;;5123840;28;19914;-39
2021/06/03 00:50:40;;;;;;;;;;;25.90;59.80;;;;;;5123728;28;19907;-39
2021/06/03 00:53:07;;;;;;;;;;;25.90;59.80;;;;;;5123648;28;19908;-39
2021/06/03 00:55:33;;;;;;;;;;;25.90;59.80;;;;;;5122894;28;19903;-39
2021/06/03 00:57:59;;;;;;;;;;;25.90;59.80;;;;;;5123270;28;20415;-39
2021/06/03 01:00:25;;;;;;;;;;;25.90;59.90;;;;;;5123365;28;19908;-39
2021/06/03 01:02:51;;;;;;;;;;;25.90;59.90;;;;;;5123700;28;19908;-39
2021/06/03 01:05:21;;;;;;;;;;;25.90;59.90;;;;;;5122707;28;19920;-38
2021/06/03 01:07:48;;;;;;;;;;;25.90;60.00;;;;;;5122640;28;19918;-42
2021/06/03 01:10:21;;;;;;;;;;;25.90;60.00;;;;;;5123120;28;19914;-39
2021/06/03 01:12:47;;;;;;;;;;;25.80;59.80;;;;;;5123122;28;19914;-41
2021/06/03 01:15:13;;;;;;;;;;;25.90;59.80;;;;;;5122978;28;19908;-37
2021/06/03 01:17:39;;;;;;;;;;;25.90;59.80;;;;;;5138664;28;19926;-38
2021/06/03 01:20:05;;;;;;;;;;;25.80;59.70;;;;;;5138544;28;20066;-37
2021/06/03 01:22:34;;;;;;;;;;;25.80;59.60;;;;;;5123270;28;19918;-37
2021/06/03 01:25:00;;;;;;;;;;;25.80;59.80;;;;;;5138258;28;19970;-37
2021/06/03 01:27:30;;;;;;;;;;;25.80;60.00;;;;;;5123274;28;19947;-37
2021/06/03 01:30:21;;;;;;;;;;;25.80;60.00;;;;;;5122897;28;19985;-37
2021/06/03 01:32:49;;;;;;;;;;;25.80;60.00;;;;;;5121133;28;20125;-37
2021/06/03 01:35:17;;;;;;;;;;;25.80;60.00;;;;;;5122931;27;19907;-37
2021/06/03 01:37:43;;;;;;;;;;;25.80;60.00;;;;;;5123022;28;19911;-37
2021/06/03 01:40:09;;;;;;;;;;;25.80;60.00;;;;;;5139055;28;19914;-37
2021/06/03 01:42:35;;;;;;;;;;;25.80;60.10;;;;;;5139015;28;20365;-37
2021/06/03 01:45:01;;;;;;;;;;;25.80;60.00;;;;;;5121623;28;19907;-37
2021/06/03 01:47:27;;;;;;;;;;;25.70;59.90;;;;;;5138873;28;19908;-37
2021/06/03 01:49:52;;;;;;;;;;;25.80;59.90;;;;;;5139087;28;19971;-38
2021/06/03 01:52:18;;;;;;;;;;;25.70;59.90;;;;;;5138685;28;19942;-38
2021/06/03 01:54:44;;;;;;;;;;;25.70;59.90;;;;;;5121145;28;19907;-37
2021/06/03 01:57:10;;;;;;;;;;;25.70;60.00;;;;;;5123027;28;19912;-38
2021/06/03 01:59:36;;;;;;;;;;;25.70;60.10;;;;;;5122830;28;19912;-37
2021/06/03 02:02:02;;;;;;;;;;;25.70;60.00;;;;;;5122972;28;19907;-38
2021/06/03 02:04:28;;;;;;;;;;;25.70;60.00;;;;;;5122820;28;19919;-37
2021/06/03 02:06:54;;;;;;;;;;;25.60;60.10;;;;;;5120291;28;19957;-37
2021/06/03 02:09:20;;;;;;;;;;;25.60;60.10;;;;;;5102306;28;19959;-37
2021/06/03 02:11:46;;;;;;;;;;;25.60;60.00;;;;;;5117522;28;19911;-37
2021/06/03 02:14:16;;;;;;;;;;;25.60;60.00;;;;;;5122945;28;19925;-38
2021/06/03 02:16:50;;;;;;;;;;;25.60;60.00;;;;;;5138522;28;19911;-37
2021/06/03 02:19:25;;;;;;;;;;;25.60;59.90;;;;;;5122937;28;20023;-37
2021/06/03 02:21:51;;;;;;;;;;;25.60;59.70;;;;;;5138581;28;19911;-37
2021/06/03 02:24:17;;;;;;;;;;;25.60;59.70;;;;;;5139265;27;19915;-37
2021/06/03 02:26:43;;;;;;;;;;;25.60;59.70;;;;;;5126056;28;19992;-37
2021/06/03 02:29:09;;;;;;;;;;;25.50;60.20;;;;;;5126596;28;19908;-38
2021/06/03 02:31:36;;;;;;;;;;;25.50;59.60;;;;;;5126248;28;19935;-37
2021/06/03 02:34:03;;;;;;;;;;;25.50;59.50;;;;;;5126270;28;19903;-37
2021/06/03 02:36:29;;;;;;;;;;;25.50;59.50;;;;;;5125871;28;19914;-37
2021/06/03 02:38:55;;;;;;;;;;;25.50;59.50;;;;;;5126086;28;20016;-38
2021/06/03 02:41:21;;;;;;;;;;;25.50;59.60;;;;;;5125693;28;19904;-38
2021/06/03 02:43:47;;;;;;;;;;;25.50;59.50;;;;;;5126082;28;19912;-37
2021/06/03 02:46:13;;;;;;;;;;;25.40;59.60;;;;;;5125990;28;19971;-37
2021/06/03 02:48:39;;;;;;;;;;;25.40;59.60;;;;;;5125958;28;19911;-37
2021/06/03 02:51:05;;;;;;;;;;;25.40;59.60;;;;;;5125978;27;19939;-37
2021/06/03 02:53:31;;;;;;;;;;;25.40;59.70;;;;;;5125605;28;19914;-37
2021/06/03 02:55:57;;;;;;;;;;;25.40;59.70;;;;;;5122835;27;19912;-37
2021/06/03 02:58:23;;;;;;;;;;;25.40;59.80;;;;;;5125741;28;19976;-37
2021/06/03 03:00:49;;;;;;;;;;;25.40;59.80;;;;;;5125435;28;19912;-38
2021/06/03 03:03:15;;;;;;;;;;;25.40;59.70;;;;;;5125861;28;19939;-37
2021/06/03 03:05:41;;;;;;;;;;;25.30;59.70;;;;;;5125007;28;20393;-37
2021/06/03 03:08:07;;;;;;;;;;;25.30;59.80;;;;;;5113372;28;19975;-37
2021/06/03 03:10:34;;;;;;;;;;;25.30;59.70;;;;;;5125222;28;19911;-38
2021/06/03 03:13:00;;;;;;;;;;;25.30;59.60;;;;;;5125373;28;19907;-37
2021/06/03 03:15:26;;;;;;;;;;;25.30;59.50;;;;;;5125573;28;19911;-37
2021/06/03 03:17:52;;;;;;;;;;;25.30;59.60;;;;;;5124267;28;20439;-38
2021/06/03 03:20:19;;;;;;;;;;;25.30;59.60;;;;;;5125452;28;19915;-37
2021/06/03 03:22:45;;;;;;;;;;;25.20;59.60;;;;;;5125295;28;20308;-37
2021/06/03 03:25:11;;;;;;;;;;;25.20;59.60;;;;;;5125160;28;20328;-37
2021/06/03 03:27:37;;;;;;;;;;;25.20;59.60;;;;;;5140911;27;19907;-37
2021/06/03 03:30:04;;;;;;;;;;;25.20;59.60;;;;;;5125128;28;19907;-38
2021/06/03 03:32:29;;;;;;;;;;;25.20;59.60;;;;;;5123640;28;19932;-38
2021/06/03 03:34:56;;;;;;;;;;;25.20;59.60;;;;;;5124408;28;20028;-37
2021/06/03 03:37:21;;;;;;;;;;;25.20;59.70;;;;;;5125078;28;19908;-37
2021/06/03 03:39:47;;;;;;;;;;;25.20;59.70;;;;;;5124648;28;19977;-38
2021/06/03 03:42:13;;;;;;;;;;;25.10;59.60;;;;;;5124590;27;19943;-38
2021/06/03 03:44:39;;;;;;;;;;;25.10;59.60;;;;;;5125008;28;19907;-37
2021/06/03 03:47:06;;;;;;;;;;;25.10;59.60;;;;;;5124755;28;20269;-38
2021/06/03 03:49:32;;;;;;;;;;;25.10;59.60;;;;;;5124839;28;19908;-38
2021/06/03 03:52:00;;;;;;;;;;;25.10;59.60;;;;;;5124395;28;19907;-37
2021/06/03 03:54:26;;;;;;;;;;;25.00;59.50;;;;;;5124213;28;19911;-37
2021/06/03 03:56:52;;;;;;;;;;;25.10;59.60;;;;;;5124100;28;19911;-37
2021/06/03 03:59:18;;;;;;;;;;;25.00;59.50;;;;;;5122487;28;19958;-37
2021/06/03 04:01:45;;;;;;;;;;;25.00;59.50;;;;;;5124354;28;19986;-37
2021/06/03 04:04:11;;;;;;;;;;;25.00;59.50;;;;;;5124559;28;19943;-37
2021/06/03 04:06:39;;;;;;;;;;;25.00;59.50;;;;;;5124624;28;19919;-38
2021/06/03 04:09:05;;;;;;;;;;;25.00;59.50;;;;;;5104023;28;19908;-37
2021/06/03 04:11:31;;;;;;;;;;;25.00;59.50;;;;;;5103681;28;19971;-37
2021/06/03 04:13:57;;;;;;;;;;;25.00;59.50;;;;;;5119279;28;20002;-37
2021/06/03 04:16:23;;;;;;;;;;;24.90;59.50;;;;;;5124367;28;19972;-37
2021/06/03 04:18:49;;;;;;;;;;;25.00;59.60;;;;;;5124252;28;19954;-38
2021/06/03 04:21:15;;;;;;;;;;;24.90;59.60;;;;;;5124026;28;19908;-37
2021/06/03 04:23:41;;;;;;;;;;;24.90;59.60;;;;;;5123486;28;19907;-37
2021/06/03 04:26:07;;;;;;;;;;;24.90;59.60;;;;;;5123975;28;20407;-37
2021/06/03 04:28:32;;;;;;;;;;;24.90;59.60;;;;;;5123804;28;19912;-38
2021/06/03 04:30:58;;;;;;;;;;;24.80;59.70;;;;;;5123962;28;19914;-38
2021/06/03 04:33:24;;;;;;;;;;;24.80;59.60;;;;;;5124203;28;19907;-37
2021/06/03 04:35:51;;;;;;;;;;;24.80;59.60;;;;;;5123759;27;19907;-38
2021/06/03 04:38:16;;;;;;;;;;;24.80;59.70;;;;;;5123687;28;19915;-37
2021/06/03 04:40:42;;;;;;;;;;;24.80;59.70;;;;;;5123213;28;19915;-43
2021/06/03 04:43:08;;;;;;;;;;;24.80;59.70;;;;;;5124047;27;19918;-37
2021/06/03 04:45:36;;;;;;;;;;;24.80;59.70;;;;;;5124029;28;19915;-37
2021/06/03 04:48:03;;;;;;;;;;;24.80;59.70;;;;;;5123204;28;19975;-38
2021/06/03 04:50:29;;;;;;;;;;;24.70;59.80;;;;;;5122826;28;19914;-37
2021/06/03 04:52:55;;;;;;;;;;;24.70;59.70;;;;;;5123071;28;19908;-37
2021/06/03 04:55:22;;;;;;;;;;;24.70;59.70;;;;;;5123418;28;19914;-38
2021/06/03 04:57:48;;;;;;;;;;;24.70;59.80;;;;;;5123616;28;19983;-37
2021/06/03 05:00:18;;;;;;;;;;;24.70;59.80;;;;;;5123851;28;19918;-38
2021/06/03 05:02:44;;;;;;;;;;;24.60;59.70;;;;;;5123278;28;19903;-37
2021/06/03 05:05:10;;;;;;;;;;;24.60;59.80;;;;;;5123371;28;19919;-37
2021/06/03 05:07:36;;;;;;;;;;;24.60;59.80;;;;;;5123614;28;20340;-38
2021/06/03 05:10:02;;;;;;;;;;;24.60;59.80;;;;;;5123479;28;19908;-37
2021/06/03 05:12:28;;;;;;;;;;;24.60;60.50;;;;;;5122919;28;19915;-37
2021/06/03 05:14:54;;;;;;;;;;;24.60;59.80;;;;;;5123519;28;19955;-37
2021/06/03 05:17:20;;;;;;;;;;;24.60;59.80;;;;;;5122982;28;19947;-37
2021/06/03 05:19:46;;;;;;;;;;;24.60;59.80;;;;;;5122993;28;19947;-38
2021/06/03 05:22:12;;;;;;;;;;;24.50;59.80;;;;;;5122854;28;19919;-38
2021/06/03 05:24:38;;;;;;;;;;;24.50;59.80;;;;;;5122846;27;19919;-38
2021/06/03 05:27:04;;;;;;;;;;;24.50;59.80;;;;;;5123231;28;19943;-37
2021/06/03 05:29:30;;;;;;;;;;;24.50;59.80;;;;;;5123200;28;19943;-37
2021/06/03 05:31:56;;;;;;;;;;;24.50;59.90;;;;;;5122971;28;19915;-38
2021/06/03 05:34:22;;;;;;;;;;;24.50;59.90;;;;;;5123441;28;19908;-37
2021/06/03 05:36:48;;;;;;;;;;;24.50;59.90;;;;;;5123274;28;19919;-38
2021/06/03 05:39:14;;;;;;;;;;;24.40;60.50;;;;;;5122970;28;19915;-37
2021/06/03 05:41:40;;;;;;;;;;;24.40;59.80;;;;;;5122797;28;19907;-37
2021/06/03 05:44:06;;;;;;;;;;;24.40;59.80;;;;;;5123263;28;19950;-37
2021/06/03 05:46:32;;;;;;;;;;;24.40;59.80;;;;;;5138623;28;19912;-38
2021/06/03 05:49:00;;;;;;;;;;;24.40;59.80;;;;;;5122634;28;20489;-38
2021/06/03 05:51:26;;;;;;;;;;;24.40;59.80;;;;;;5122960;28;19925;-38
2021/06/03 05:53:52;;;;;;;;;;;24.30;59.80;;;;;;5122611;28;20022;-38
2021/06/03 05:56:18;;;;;;;;;;;24.30;59.80;;;;;;5122825;28;19911;-38
2021/06/03 05:58:44;;;;;;;;;;;24.30;59.90;;;;;;5124339;28;19915;-38
2021/06/03 06:01:10;;;;;;;;;;;24.30;59.90;;;;;;5127007;28;19907;-37
2021/06/03 06:03:42;;;;;;;;;;;24.30;59.90;;;;;;5125984;28;19911;-38
2021/06/03 06:06:12;;;;;;;;;;;24.30;59.90;;;;;;5126935;28;19919;-38
2021/06/03 06:08:39;;;;;;;;;;;24.20;59.90;;;;;;5109962;28;19912;-38
2021/06/03 06:11:05;;;;;;;;;;;24.20;59.90;;;;;;5106230;28;19904;-38
2021/06/03 06:13:31;;;;;;;;;;;24.30;60.00;;;;;;5120116;28;19914;-38
2021/06/03 06:15:57;;;;;;;;;;;24.20;60.00;;;;;;5126628;28;19908;-37
2021/06/03 06:18:23;;;;;;;;;;;24.20;60.00;;;;;;5126366;28;19915;-38
2021/06/03 06:20:49;;;;;;;;;;;24.20;60.00;;;;;;5126533;28;19950;-38
2021/06/03 06:23:16;;;;;;;;;;;24.10;60.00;;;;;;5126320;27;19958;-38
2021/06/03 06:25:42;;;;;;;;;;;24.10;60.00;;;;;;5126433;28;19910;-38
2021/06/03 06:28:12;;;;;;;;;;;24.10;60.00;;;;;;5126440;28;19912;-38
2021/06/03 06:30:38;;;;;;;;;;;24.10;60.00;;;;;;5126332;28;19995;-37
2021/06/03 06:33:04;;;;;;;;;;;24.10;60.00;;;;;;5126148;28;20071;-38
2021/06/03 06:35:30;;;;;;;;;;;24.10;60.00;;;;;;5125978;28;19950;-38
2021/06/03 06:37:56;;;;;;;;;;;24.10;60.00;;;;;;5126284;28;19964;-37
2021/06/03 06:40:21;;;;;;;;;;;24.10;60.00;;;;;;5125779;28;19908;-38
2021/06/03 06:42:53;;;;;;;;;;;24.00;59.90;;;;;;5125508;28;19912;-38
2021/06/03 06:45:19;;;;;;;;;;;24.00;60.00;;;;;;5125807;28;19919;-37
2021/06/03 06:47:45;;;;;;;;;;;24.00;60.00;;;;;;5125845;28;19946;-37
2021/06/03 06:50:11;;;;;;;;;;;24.00;60.10;;;;;;5125930;28;19908;-37
2021/06/03 06:52:37;;;;;;;;;;;24.00;60.00;;;;;;5125796;28;19907;-39
2021/06/03 06:55:03;;;;;;;;;;;24.00;60.00;;;;;;5125098;28;20394;-38
2021/06/03 06:57:29;;;;;;;;;;;24.00;60.10;;;;;;5125604;28;19915;-38
2021/06/03 06:59:55;;;;;;;;;;;23.90;60.10;;;;;;5125655;28;19907;-37
2021/06/03 07:02:21;;;;;;;;;;;23.90;60.10;;;;;;5126155;27;19925;-37
2021/06/03 07:04:47;;;;;;;;;;;23.90;60.10;;;;;;5123701;28;20425;-37
2021/06/03 07:07:13;;;;;;;;;;;23.90;60.10;;;;;;5121084;27;19908;-38
2021/06/03 07:09:39;;;;;;;;;;;23.90;60.20;;;;;;5104687;28;19908;-38
2021/06/03 07:12:05;;;;;;;;;;;23.90;60.20;;;;;;5105013;28;19935;-38
2021/06/03 07:14:31;;;;;;;;;;;23.90;60.20;;;;;;5104993;28;19908;-38
2021/06/03 07:16:57;;;;;;;;;;;23.90;60.30;;;;;;5104801;28;19904;-38
2021/06/03 07:19:22;;;;;;;;;;;23.90;60.30;;;;;;5109027;28;19915;-37
2021/06/03 07:21:48;;;;;;;;;;;23.80;60.20;;;;;;5125395;28;19911;-37
2021/06/03 07:24:14;;;;;;;;;;;23.90;60.30;;;;;;5124972;28;20360;-38
2021/06/03 07:26:40;;;;;;;;;;;23.80;60.20;;;;;;5125039;28;19915;-37
2021/06/03 07:29:06;;;;;;;;;;;23.80;60.20;;;;;;5124849;28;19911;-38
2021/06/03 07:31:34;;;;;;;;;;;23.80;60.30;;;;;;5125200;28;19911;-38
2021/06/03 07:34:01;;;;;;;;;;;23.80;60.30;;;;;;5124670;28;19903;-38
2021/06/03 07:36:27;;;;;;;;;;;23.80;60.30;;;;;;5124724;28;19914;-37
2021/06/03 07:38:53;;;;;;;;;;;23.80;60.30;;;;;;5125041;28;19950;-38
2021/06/03 07:41:18;;;;;;;;;;;23.80;60.20;;;;;;5124903;28;19912;-37
2021/06/03 07:43:44;;;;;;;;;;;23.80;60.30;;;;;;5124516;28;19908;-37
2021/06/03 07:46:12;;;;;;;;;;;23.70;60.30;;;;;;5124782;28;19942;-38
2021/06/03 07:48:38;;;;;;;;;;;23.70;60.30;;;;;;5124683;28;19935;-37
2021/06/03 07:51:04;;;;;;;;;;;23.70;60.30;;;;;;5125015;28;19915;-38
2021/06/03 07:53:31;;;;;;;;;;;23.70;60.40;;;;;;5124584;28;19904;-38
2021/06/03 07:55:57;;;;;;;;;;;23.70;60.40;;;;;;5124399;28;20619;-37
2021/06/03 07:58:23;;;;;;;;;;;23.70;60.50;;;;;;5124194;28;19916;-37
2021/06/03 08:00:49;;;;;;;;;;;23.70;60.40;;;;;;5124602;28;20006;-37
2021/06/03 08:03:15;;;;;;;;;;;23.70;60.50;;;;;;5124772;28;19926;-38
2021/06/03 08:05:41;;;;;;;;;;;23.60;60.50;;;;;;5124239;28;19915;-38
2021/06/03 08:08:07;;;;;;;;;;;23.60;60.50;;;;;;5124000;28;19912;-37
2021/06/03 08:10:38;;;;;;;;;;;23.60;60.50;;;;;;5124174;27;19914;-38
2021/06/03 08:13:04;;;;;;;;;;;23.60;60.60;;;;;;5124419;28;19908;-43
2021/06/03 08:15:30;;;;;;;;;;;23.60;60.60;;;;;;5124272;28;19910;-38
2021/06/03 08:17:56;;;;;;;;;;;23.60;60.60;;;;;;5123867;28;19943;-38
2021/06/03 08:20:26;;;;;;;;;;;23.60;60.60;;;;;;5124009;28;19912;-37
2021/06/03 08:22:52;;;;;;;;;;;23.60;60.70;;;;;;5122966;28;19907;-37
2021/06/03 08:25:18;;;;;;;;;;;23.50;60.50;;;;;;5123992;28;19947;-37
2021/06/03 08:27:44;;;;;;;;;;;23.60;60.60;;;;;;5123566;28;19912;-37
2021/06/03 08:30:10;;;;;;;;;;;23.50;60.60;;;;;;5124289;28;20010;-38
2021/06/03 08:32:36;;;;;;;;;;;23.50;60.60;;;;;;5123819;28;20364;-38
2021/06/03 08:35:02;;;;;;;;;;;23.50;60.60;;;;;;5124032;28;19910;-37
2021/06/03 08:37:30;;;;;;;;;;;23.50;60.60;;;;;;5123600;28;19911;-38
2021/06/03 08:39:56;;;;;;;;;;;23.50;60.60;;;;;;5123499;28;19920;-38
2021/06/03 08:42:21;;;;;;;;;;;23.50;60.60;;;;;;5123930;28;19943;-37
2021/06/03 08:44:47;;;;;;;;;;;23.50;60.60;;;;;;5123761;28;20348;-38
2021/06/03 08:47:13;;;;;;;;;;;23.50;61.40;;;;;;5122299;28;19908;-37
2021/06/03 08:49:39;;;;;;;;;;;23.40;60.70;;;;;;5123466;28;19930;-37
2021/06/03 08:52:07;;;;;;;;;;;23.40;60.70;;;;;;5123445;28;19903;-38
2021/06/03 08:54:37;;;;;;;;;;;23.40;60.80;;;;;;5138772;27;19912;-37
2021/06/03 08:57:05;;;;;;;;;;;23.40;60.80;;;;;;5122540;28;19911;-38
2021/06/03 08:59:31;;;;;;;;;;;23.40;60.80;;;;;;5123204;28;19932;-38
2021/06/03 09:01:57;;;;;;;;;;;23.40;60.80;;;;;;5123533;28;20577;-37
2021/06/03 09:04:23;;;;;;;;;;;23.40;60.90;;;;;;5123489;28;19922;-38
2021/06/03 09:06:49;;;;;;;;;;;23.30;60.80;;;;;;5123182;28;19966;-38
2021/06/03 09:09:22;;;;;;;;;;;23.40;60.90;;;;;;5121618;28;20380;-38
2021/06/03 09:11:48;;;;;;;;;;;23.30;60.80;;;;;;5122537;28;19911;-37
2021/06/03 09:14:16;;;;;;;;;;;23.30;60.80;;;;;;5123492;28;19952;-37
2021/06/03 09:16:42;;;;;;;;;;;23.30;60.90;;;;;;5123562;28;20480;-37
2021/06/03 09:19:11;;;;;;;;;;;23.30;60.80;;;;;;5138800;28;19950;-37
2021/06/03 09:21:43;;;;;;;;;;;23.30;60.90;;;;;;5110665;28;19912;-37
2021/06/03 09:24:10;;;;;;;;;;;23.30;60.90;;;;;;5123062;28;19918;-38
2021/06/03 09:26:47;;;;;;;;;;;23.30;60.90;;;;;;5123249;28;20327;-38
2021/06/03 09:29:14;;;;;;;;;;;23.30;61.00;;;;;;5123151;28;19915;-37
2021/06/03 09:31:40;;;;;;;;;;;23.30;61.00;;;;;;5123537;28;19908;-38
2021/06/03 09:34:15;;;;;;;;;;;23.30;61.00;;;;;;5125612;28;19911;-38
2021/06/03 09:36:49;;;;;;;;;;;23.30;61.10;;;;;;5106962;28;19998;-38
2021/06/03 09:39:16;;;;;;;;;;;23.30;61.10;;;;;;5106677;28;19919;-38
2021/06/03 09:41:51;;;;;;;;;;;23.20;61.00;;;;;;5106642;28;19904;-37
2021/06/03 09:44:21;;;;;;;;;;;23.20;61.00;;;;;;5107081;28;19915;-37
2021/06/03 09:46:48;;;;;;;;;;;23.20;61.00;;;;;;5107042;28;20254;-38
2021/06/03 09:49:17;;;;;;;;;;;23.20;61.00;;;;;;5107206;28;19915;-38
2021/06/03 09:51:45;;;;;;;;;;;23.20;61.00;;;;;;5127096;28;19915;-38
2021/06/03 09:54:11;;;;;;;;;;;23.20;61.10;;;;;;5127290;27;19936;-37
2021/06/03 09:56:39;;;;;;;;;;;23.20;61.10;;;;;;5142250;27;19912;-38
2021/06/03 09:59:06;;;;;;;;;;;23.20;61.10;;;;;;5125251;28;19969;-38
2021/06/03 10:02:02;;;;;;;;;;;23.10;61.00;;;;;;5127132;28;20283;-37
2021/06/03 10:04:37;;;;;;;;;;;23.10;61.10;;;;;;5117665;28;19992;-37
2021/06/03 10:07:11;;;;;;;;;;;23.10;61.00;;;;;;5126775;28;19908;-37
2021/06/03 10:09:47;;;;;;;;;;;23.10;61.00;;;;;;5126732;28;20466;-37
2021/06/03 10:12:22;;;;;;;;;;;23.10;61.00;;;;;;5126367;28;19907;-38
2021/06/03 10:14:58;;;;;;;;;;;23.10;61.00;;;;;;5142705;27;19907;-38
2021/06/03 10:17:28;;;;;;;;;;;23.10;61.10;;;;;;5126618;28;19912;-38
2021/06/03 10:19:59;;;;;;;;;;;23.10;61.10;;;;;;5126301;28;19911;-37
2021/06/03 10:22:26;;;;;;;;;;;23.10;61.10;;;;;;5126712;28;19914;-38
2021/06/03 10:24:53;;;;;;;;;;;23.10;61.10;;;;;;5126465;28;19915;-38
2021/06/03 10:27:20;;;;;;;;;;;23.00;61.10;;;;;;5126428;28;19908;-37
2021/06/03 10:29:48;;;;;;;;;;;23.00;61.10;;;;;;5126262;28;19933;-37
2021/06/03 10:32:15;;;;;;;;;;;23.10;61.20;;;;;;5126636;27;19907;-37
2021/06/03 10:34:41;;;;;;;;;;;23.00;61.20;;;;;;5126494;28;19907;-38
2021/06/03 10:37:07;;;;;;;;;;;23.00;61.20;;;;;;5126410;28;19983;-38
2021/06/03 10:39:32;;;;;;;;;;;23.00;61.20;;;;;;5141655;27;19942;-37
2021/06/03 10:42:01;;;;;;;;;;;23.00;61.20;;;;;;5125956;28;19918;-37
2021/06/03 10:44:27;;;;;;;;;;;23.00;62.00;;;;;;5125186;28;19971;-38
2021/06/03 10:46:54;;;;;;;;;;;23.00;61.30;;;;;;5125971;28;19930;-37
2021/06/03 10:49:20;;;;;;;;;;;23.00;61.30;;;;;;5126182;28;19903;-37
2021/06/03 10:51:46;;;;;;;;;;;23.00;61.30;;;;;;5125664;28;19984;-38
2021/06/03 10:54:12;;;;;;;;;;;23.00;61.30;;;;;;5125460;28;19904;-37
2021/06/03 10:56:38;;;;;;;;;;;22.90;61.20;;;;;;5125900;28;19908;-38
2021/06/03 10:59:14;;;;;;;;;;;23.00;61.30;;;;;;5126016;28;20010;-37
2021/06/03 11:01:50;;;;;;;;;;;23.00;61.30;;;;;;5140676;27;20046;-38
2021/06/03 11:04:25;;;;;;;;;;;22.90;61.20;;;;;;5125940;28;20261;-38
2021/06/03 11:06:51;;;;;;;;;;;22.90;61.20;;;;;;5139380;27;19912;-37
2021/06/03 11:09:22;;;;;;;;;;;22.90;61.20;;;;;;5105365;28;19904;-37
2021/06/03 11:11:49;;;;;;;;;;;22.90;61.20;;;;;;5120435;28;20014;-37
2021/06/03 11:14:19;;;;;;;;;;;22.90;61.20;;;;;;5114038;28;20272;-38
2021/06/03 11:16:46;;;;;;;;;;;22.90;61.30;;;;;;5125608;28;19911;-38
2021/06/03 11:19:12;;;;;;;;;;;22.80;61.30;;;;;;5125354;28;19964;-37
2021/06/03 11:21:41;;;;;;;;;;;22.90;61.30;;;;;;5125151;28;19911;-37
2021/06/03 11:24:07;;;;;;;;;;;22.90;61.40;;;;;;5125451;28;19914;-37
2021/06/03 11:26:42;;;;;;;;;;;22.90;61.40;;;;;;5125642;28;19939;-37
2021/06/03 11:29:14;;;;;;;;;;;22.80;61.30;;;;;;5125517;27;19933;-37
2021/06/03 11:31:44;;;;;;;;;;;22.90;61.40;;;;;;5125058;28;19915;-38
2021/06/03 11:34:11;;;;;;;;;;;22.90;61.40;;;;;;5125505;27;19907;-38
2021/06/03 11:36:37;;;;;;;;;;;22.80;61.40;;;;;;5125392;28;20352;-37
2021/06/03 11:39:04;;;;;;;;;;;22.80;61.40;;;;;;5125197;28;19916;-37
2021/06/03 11:41:34;;;;;;;;;;;22.80;61.40;;;;;;5124923;28;19904;-38
2021/06/03 11:44:07;;;;;;;;;;;22.80;61.40;;;;;;5125011;28;19961;-37
2021/06/03 11:46:51;;;;;;;;;;;22.80;61.40;;;;;;5125091;28;19974;-38
2021/06/03 11:49:43;;;;;;;;;;;22.80;61.40;;;;;;5125118;27;19908;-38
2021/06/03 11:52:13;;;;;;;;;;;22.80;61.40;;;;;;5122303;27;19933;-37
2021/06/03 11:54:58;;;;;;;;;;;22.80;61.30;;;;;;5124682;28;19918;-37
2021/06/03 11:57:30;;;;;;;;;;;22.80;61.30;;;;;;5120427;28;19942;-37
2021/06/03 11:59:56;;;;;;;;;;;22.80;61.30;;;;;;5124021;28;19923;-37
2021/06/03 12:02:31;;;;;;;;;;;22.80;61.40;;;;;;5124586;28;19912;-37
2021/06/03 12:05:09;;;;;;;;;;;22.70;61.30;;;;;;5124342;28;19920;-37
2021/06/03 12:07:55;;;;;;;;;;;22.70;61.30;;;;;;5116641;28;19914;-38
2021/06/03 12:10:41;;;;;;;;;;;22.80;61.40;;;;;;5103787;28;19911;-37
2021/06/03 12:13:17;;;;;;;;;;;22.80;61.50;;;;;;5103980;28;19924;-37
2021/06/03 12:15:43;;;;;;;;;;;22.80;61.50;;;;;;5103837;28;19954;-37
2021/06/03 12:18:09;;;;;;;;;;;22.80;61.50;;;;;;5104012;28;19912;-37
2021/06/03 12:20:35;;;;;;;;;;;22.80;61.60;;;;;;5115649;28;19908;-37
2021/06/03 12:23:07;;;;;;;;;;;22.70;61.50;;;;;;5124473;28;19908;-37
2021/06/03 12:25:34;;;;;;;;;;;22.80;61.60;;;;;;5124397;28;19914;-38
2021/06/03 12:28:00;;;;;;;;;;;22.80;61.60;;;;;;5124305;28;19943;-38
2021/06/03 12:30:29;;;;;;;;;;;22.70;61.60;;;;;;5124084;28;19907;-37
2021/06/03 12:32:59;;;;;;;;;;;22.80;61.60;;;;;;5124120;28;19912;-37
2021/06/03 12:35:34;;;;;;;;;;;22.70;61.50;;;;;;5124046;27;19908;-37
2021/06/03 12:38:00;;;;;;;;;;;22.80;61.70;;;;;;5123928;28;19982;-38
2021/06/03 12:40:26;;;;;;;;;;;22.80;61.60;;;;;;5122181;28;20061;-38
2021/06/03 12:43:02;;;;;;;;;;;22.80;61.60;;;;;;5124199;28;19981;-37
2021/06/03 12:45:29;;;;;;;;;;;22.80;61.50;;;;;;5123440;28;19916;-38
2021/06/03 12:47:55;;;;;;;;;;;22.80;61.60;;;;;;5123675;28;19908;-37
2021/06/03 12:50:21;;;;;;;;;;;22.80;61.50;;;;;;5123501;28;19929;-37
2021/06/03 12:52:48;;;;;;;;;;;22.80;61.50;;;;;;5123506;28;19908;-37
2021/06/03 12:55:14;;;;;;;;;;;22.80;61.50;;;;;;5123791;28;19952;-38
2021/06/03 12:57:41;;;;;;;;;;;22.80;61.40;;;;;;5123772;28;20018;-37
2021/06/03 13:00:12;;;;;;;;;;;22.80;61.50;;;;;;5123864;28;19911;-38
2021/06/03 13:02:38;;;;;;;;;;;22.80;61.50;;;;;;5123635;28;19934;-37
2021/06/03 13:05:09;;;;;;;;;;;22.80;61.50;;;;;;5123216;28;19943;-38
2021/06/03 13:07:38;;;;;;;;;;;22.80;61.60;;;;;;5131355;27;19912;-37
2021/06/03 13:10:11;;;;;;;;;;;22.80;61.60;;;;;;5103143;28;19927;-37
2021/06/03 13:12:43;;;;;;;;;;;22.80;61.70;;;;;;5103003;28;19967;-37
2021/06/03 13:15:09;;;;;;;;;;;22.80;61.70;;;;;;5119470;28;19984;-38
2021/06/03 13:17:38;;;;;;;;;;;22.80;61.80;;;;;;5123304;28;20380;-38
2021/06/03 13:20:13;;;;;;;;;;;22.80;61.70;;;;;;5123461;28;19982;-37
2021/06/03 13:22:38;;;;;;;;;;;22.80;61.70;;;;;;5123428;28;19907;-38
2021/06/03 13:25:07;;;;;;;;;;;22.90;61.80;;;;;;5123628;28;19942;-37
2021/06/03 13:27:33;;;;;;;;;;;22.90;61.80;;;;;;5123481;28;19986;-37
2021/06/03 13:30:00;;;;;;;;;;;22.80;61.60;;;;;;5122897;28;20268;-38
2021/06/03 13:32:30;;;;;;;;;;;22.90;61.70;;;;;;5123050;28;19907;-37
2021/06/03 13:35:14;;;;;;;;;;;22.90;61.70;;;;;;5123575;28;19914;-37
2021/06/03 13:37:58;;;;;;;;;;;22.90;61.90;;;;;;5122457;27;20641;-38
2021/06/03 13:40:24;;;;;;;;;;;22.90;62.00;;;;;;5139155;28;19915;-37
2021/06/03 13:43:04;;;;;;;;;;;22.90;62.10;;;;;;5122625;28;19908;-38
2021/06/03 13:45:40;;;;;;;;;;;23.00;62.40;;;;;;5123232;28;19953;-38
2021/06/03 13:48:14;;;;;;;;;;;22.90;62.50;;;;;;5123401;28;19904;-37
2021/06/03 13:50:40;;;;;;;;;;;23.00;62.70;;;;;;5123478;28;19998;-37
2021/06/03 13:53:07;;;;;;;;;;;23.00;62.90;;;;;;5122867;28;19939;-41
2021/06/03 13:55:33;;;;;;;;;;;23.00;62.90;;;;;;5123395;28;20277;-37
2021/06/03 13:57:59;;;;;;;;;;;23.10;63.00;;;;;;5123073;28;19934;-38
2021/06/03 14:00:26;;;;;;;;;;;23.10;63.30;;;;;;5123046;28;19922;-37
2021/06/03 14:02:59;;;;;;;;;;;23.10;63.00;;;;;;5122984;28;19908;-38
2021/06/03 14:05:25;;;;;;;;;;;23.10;63.00;;;;;;5123110;28;19923;-38
2021/06/03 14:08:10;;;;;;;;;;;23.10;63.00;;;;;;5128867;28;19912;-38
2021/06/03 14:10:56;;;;;;;;;;;23.10;63.00;;;;;;5102738;28;20049;-38
2021/06/03 14:13:22;;;;;;;;;;;23.10;63.00;;;;;;5103363;28;19904;-37
2021/06/03 14:15:48;;;;;;;;;;;23.10;63.00;;;;;;5123052;28;20495;-38
2021/06/03 14:18:13;;;;;;;;;;;23.10;63.00;;;;;;5123032;28;20033;-38
2021/06/03 14:20:39;;;;;;;;;;;23.10;62.90;;;;;;5125546;28;19950;-37